LLBG/TLV METAR and TAF weather

Enter ICAO airport designator
Station Type Date Time Source
LLBG METAR 2024/06/14 01:20 UTC NOAA

LLBG 140120Z 18004KT 7000 NSC 25/24 Q1008 BECMG 4000 BR SCT004


Station Type Date Time Source
LLBG Decoded METAR 2024/06/14 01:20 UTC NOAA

Ben-Gurion International Airport, Israel (LLBG) 32-00N 034-54E 49M
Jun 13, 2024 - 09:20 PM EDT / 2024.06.14 0120 UTC
Wind: from the S (180 degrees) at 5 MPH (4 KT):0
Visibility: 4 mile(s):0
Temperature: 77 F (25 C)
Dew Point: 75 F (24 C)
Relative Humidity: 94%
Pressure (altimeter): 29.77 in. Hg (1008 hPa)
ob: LLBG 140120Z 18004KT 7000 NSC 25/24 Q1008 BECMG 4000 BR SCT004
cycle: 1

Station Type Date Time Source
LLBG TAF 2024/06/13 18:06 UTC NOAA